Overview Statistics Trail Chart Weather Telemetry Raw packets
 

This is the latest recevied weather packets stored in our database for station/object PU5BHV. If no packets are shown the sender has not sent any weather packets the latest 10 day(s).

<< 47 48 49 50 51 52 53 >>
Time Temp. Humidity Pressure Rain* Wind** Luminosity Snow
1777299161 27.22° C 55% 1014.2 hPa 0 mm - 622 W/m² -
1777298858 26.67° C 56% 1014.3 hPa 0 mm - 668 W/m² -
1777298554 26.67° C 58% 1014.3 hPa 0 mm - 688 W/m² -
1777298251 26.67° C 58% 1014.5 hPa 0 mm - 652 W/m² -
1777297947 26.67° C 58% 1014.5 hPa 0 mm - 645 W/m² -
1777297644 26.67° C 57% 1014.8 hPa 0 mm - 718 W/m² -
1777297341 26.67° C 56% 1014.5 hPa 0 mm - 726 W/m² -
1777297038 26.67° C 56% 1014.5 hPa 0 mm - 658 W/m² -
1777296734 26.67° C 57% 1014.8 hPa 0 mm - 613 W/m² -
1777296430 26.11° C 58% 1014.7 hPa 0 mm - 669 W/m² -
1777296126 26.67° C 58% 1014.8 hPa 0 mm - 664 W/m² -
1777295823 26.11° C 59% 1014.8 hPa 0 mm - 606 W/m² -
1777295520 26.67° C 58% 1014.8 hPa 0 mm - 619 W/m² -
1777295218 26.11° C 59% 1014.9 hPa 0 mm - 579 W/m² -
1777294916 26.11° C 59% 1015.1 hPa 0 mm - 578 W/m² -
1777294616 26.11° C 60% 1015 hPa 0 mm - 562 W/m² -
1777294313 25.56° C 65% 1014.9 hPa 0 mm - 555 W/m² -
1777294009 26.11° C 62% 1014.9 hPa 0 mm - 571 W/m² -
1777293705 25.56° C 65% 1015.1 hPa 0 mm - 342 W/m² -
1777293400 25.56° C 61% 1015.2 hPa 0 mm - 449 W/m² -
1777293097 25° C 62% 1014.9 hPa 0 mm - 405 W/m² -
1777292795 25° C 64% 1015 hPa 0 mm - 380 W/m² -
1777292492 25° C 66% 1014.8 hPa 0 mm - 388 W/m² -
1777292188 25° C 67% 1014.9 hPa 0 mm - 377 W/m² -
1777291885 24.44° C 71% 1014.9 hPa 0 mm - 350 W/m² -

* Rain latest hour (hover to see other rain measurements)
** Current wind speed in m/s (hover to see current wind gust speed)